Time;durP1;ratioP1;P1;durP2;ratioP2;P2;SDS_P1;SDS_P2;PMS_P1;PMS_P2;Temp;Humidity;BMP_temperature;BMP_pressure;BME280_temperature;BME280_humidity;BME280_pressure;Samples;Min_cycle;Max_cycle;Signal;HPM_P1;HPM_P2
2022/11/13 00:00:37;;;;;;;9.75;2.92;;;21.90;29.20;;;;;;5034841;28;20415;-68
2022/11/13 00:03:03;;;;;;;31.10;17.52;;;21.80;30.50;;;;;;5029626;28;20112;-68
2022/11/13 00:05:29;;;;;;;6.70;2.65;;;21.60;31.60;;;;;;5017061;28;20070;-65
2022/11/13 00:07:56;;;;;;;12.32;4.10;;;21.40;32.70;;;;;;5034801;28;20105;-65
2022/11/13 00:10:22;;;;;;;7.05;3.88;;;21.30;32.60;;;;;;5034827;28;20093;-69
2022/11/13 00:12:48;;;;;;;10.02;4.10;;;21.10;32.00;;;;;;5034537;28;20078;-67
2022/11/13 00:15:15;;;;;;;6.85;3.47;;;20.90;31.70;;;;;;5034842;28;20547;-69
2022/11/13 00:17:41;;;;;;;8.48;3.78;;;20.90;32.20;;;;;;5034204;28;20219;-67
2022/11/13 00:20:08;;;;;;;14.32;5.68;;;20.80;32.30;;;;;;5034904;28;20438;-66
2022/11/13 00:22:34;;;;;;;7.95;4.53;;;20.70;30.80;;;;;;5034765;28;20084;-68
2022/11/13 00:25:01;;;;;;;10.35;3.97;;;20.60;32.20;;;;;;5050170;28;20124;-66
2022/11/13 00:27:30;;;;;;;10.63;3.55;;;20.50;33.20;;;;;;5034691;28;20388;-66
2022/11/13 00:29:56;;;;;;;17.30;3.80;;;20.30;33.10;;;;;;5034588;28;20189;-67
2022/11/13 00:32:23;;;;;;;10.98;3.67;;;20.30;34.10;;;;;;5034404;28;20120;-68
2022/11/13 00:34:49;;;;;;;12.25;3.75;;;20.20;33.80;;;;;;5034499;28;20511;-67
2022/11/13 00:37:15;;;;;;;9.07;3.42;;;19.90;34.40;;;;;;5034406;28;20408;-66
2022/11/13 00:39:42;;;;;;;10.18;3.53;;;19.90;33.80;;;;;;5034020;28;20118;-67
2022/11/13 00:42:08;;;;;;;12.45;3.60;;;19.80;33.30;;;;;;5033501;28;20106;-67
2022/11/13 00:44:35;;;;;;;19.00;4.57;;;19.60;33.20;;;;;;5033914;28;20124;-67
2022/11/13 00:47:01;;;;;;;18.00;5.40;;;19.60;33.90;;;;;;5034300;28;20100;-67
2022/11/13 00:49:28;;;;;;;21.83;6.15;;;19.40;34.20;;;;;;5034114;28;20140;-66
2022/11/13 00:51:54;;;;;;;13.77;4.88;;;19.40;34.70;;;;;;5034316;28;20527;-67
2022/11/13 00:54:20;;;;;;;16.13;5.20;;;19.20;35.30;;;;;;5033922;28;20070;-67
2022/11/13 00:56:47;;;;;;;16.45;6.28;;;19.10;35.70;;;;;;5022021;28;20081;-69
2022/11/13 00:59:13;;;;;;;13.45;6.47;;;19.00;36.10;;;;;;5032194;28;20090;-69
2022/11/13 01:01:39;;;;;;;16.08;7.35;;;18.90;36.40;;;;;;5033144;28;20078;-68
2022/11/13 01:04:06;;;;;;;15.55;6.90;;;18.80;36.30;;;;;;5033569;28;20523;-70
2022/11/13 01:06:32;;;;;;;15.63;7.03;;;18.70;36.60;;;;;;5033076;28;20122;-69
2022/11/13 01:08:59;;;;;;;39.42;21.65;;;18.70;37.10;;;;;;5033365;28;20139;-67
2022/11/13 01:11:28;;;;;;;24.70;13.52;;;18.60;37.30;;;;;;5033127;28;20070;-67
2022/11/13 01:13:54;;;;;;;33.45;17.40;;;18.50;37.40;;;;;;5033883;28;20096;-68
2022/11/13 01:16:23;;;;;;;34.85;17.58;;;18.40;37.90;;;;;;5033751;28;20148;-69
2022/11/13 01:18:52;;;;;;;25.63;11.35;;;18.40;38.10;;;;;;5033622;28;20074;-67
2022/11/13 01:21:21;;;;;;;18.02;8.68;;;18.30;38.30;;;;;;5033477;28;20070;-68
2022/11/13 01:23:48;;;;;;;19.42;8.55;;;18.30;38.80;;;;;;5033274;28;20073;-68
2022/11/13 01:26:24;;;;;;;23.15;8.23;;;18.20;38.70;;;;;;5034128;28;20077;-68
2022/11/13 01:28:50;;;;;;;22.90;8.80;;;18.00;39.20;;;;;;5048568;28;20157;-70
2022/11/13 01:31:23;;;;;;;22.98;10.52;;;18.00;39.70;;;;;;5033434;28;20073;-69
2022/11/13 01:33:50;;;;;;;19.92;9.90;;;17.90;39.90;;;;;;5033249;28;20168;-69
2022/11/13 01:36:23;;;;;;;24.63;11.27;;;17.80;40.60;;;;;;5033196;28;20074;-69
2022/11/13 01:38:50;;;;;;;35.55;13.70;;;17.80;41.20;;;;;;5033151;28;20077;-68
2022/11/13 01:41:29;;;;;;;37.35;13.68;;;17.70;41.00;;;;;;5033120;28;20097;-69
2022/11/13 01:43:56;;;;;;;37.83;13.18;;;17.50;41.40;;;;;;5033303;28;20144;-71
2022/11/13 01:46:27;;;;;;;39.38;14.30;;;17.40;42.70;;;;;;5030518;28;20074;-70
2022/11/13 01:49:09;;;;;;;39.28;15.30;;;17.30;42.60;;;;;;5013760;28;20078;-70
2022/11/13 01:51:48;;;;;;;43.10;16.30;;;17.30;42.80;;;;;;5032488;28;20119;-66
2022/11/13 01:54:18;;;;;;;39.60;17.20;;;17.30;43.00;;;;;;5027995;28;20413;-69
2022/11/13 01:56:44;;;;;;;47.47;18.58;;;17.10;43.30;;;;;;5031844;28;20549;-68
2022/11/13 01:59:20;;;;;;;46.17;17.83;;;17.10;43.50;;;;;;5033056;28;20415;-70
2022/11/13 02:01:47;;;;;;;36.50;17.30;;;17.00;43.40;;;;;;5032993;28;20085;-69
2022/11/13 02:04:14;;;;;;;46.00;15.60;;;17.00;43.50;;;;;;5032995;28;20168;-68
2022/11/13 02:06:54;;;;;;;38.90;17.30;;;16.80;43.50;;;;;;5033003;28;20594;-71
2022/11/13 02:09:24;;;;;;;48.70;18.15;;;16.80;44.40;;;;;;5032710;28;20171;-72
2022/11/13 02:11:52;;;;;;;39.55;18.20;;;16.70;44.80;;;;;;5032607;28;20515;-69
2022/11/13 02:14:20;;;;;;;41.70;16.77;;;16.70;45.10;;;;;;5032638;28;20089;-69
2022/11/13 02:16:49;;;;;;;42.97;18.50;;;16.60;44.90;;;;;;5032377;28;20073;-68
2022/11/13 02:19:28;;;;;;;45.90;17.25;;;16.50;45.40;;;;;;5032572;28;20074;-68
2022/11/13 02:22:22;;;;;;;46.60;17.40;;;16.60;45.60;;;;;;5031225;28;20084;-67
2022/11/13 02:24:48;;;;;;;38.55;15.82;;;16.50;45.90;;;;;;4991639;28;20197;-67
2022/11/13 02:27:53;;;;;;;51.22;16.08;;;16.50;45.80;;;;;;5032159;28;20078;-69
2022/11/13 02:30:24;;;;;;;43.30;15.68;;;16.40;45.80;;;;;;5010574;28;20098;-69
2022/11/13 02:32:52;;;;;;;40.72;15.05;;;16.30;45.80;;;;;;5010545;28;20189;-68
2022/11/13 02:35:26;;;;;;;35.20;16.38;;;16.20;45.30;;;;;;5010395;28;20177;-70
2022/11/13 02:37:55;;;;;;;45.83;17.35;;;16.10;46.10;;;;;;5010326;28;20086;-69
2022/11/13 02:40:22;;;;;;;45.17;17.85;;;16.10;46.00;;;;;;5010470;28;20090;-69
2022/11/13 02:42:49;;;;;;;44.28;20.17;;;16.00;46.10;;;;;;5010284;28;20091;-70
2022/11/13 02:45:15;;;;;;;;;;;16.00;46.60;;;;;;5010832;28;20124;-68
2022/11/13 02:47:41;;;;;;;43.00;19.15;;;16.00;46.90;;;;;;5010311;28;19953;-70
2022/11/13 02:50:09;;;;;;;47.65;19.15;;;15.90;47.40;;;;;;5010025;28;20094;-69
2022/11/13 02:52:35;;;;;;;52.97;19.60;;;15.90;47.10;;;;;;5010071;28;20094;-70
2022/11/13 02:55:04;;;;;;;54.50;21.13;;;15.90;47.50;;;;;;5004763;28;20090;-70
2022/11/13 02:57:30;;;;;;;57.75;19.27;;;15.80;47.60;;;;;;5002222;28;20176;-69
2022/11/13 02:59:56;;;;;;;;;;;15.80;47.80;;;;;;5010627;28;20105;-67
2022/11/13 03:02:23;;;;;;;45.85;18.42;;;15.80;48.40;;;;;;5010375;28;19962;-67
2022/11/13 03:04:49;;;;;;;53.20;19.15;;;15.70;48.80;;;;;;5028451;28;20778;-70
2022/11/13 03:07:15;;;;;;;;;;;15.70;48.90;;;;;;5042189;28;20113;-71
2022/11/13 03:09:43;;;;;;;62.38;20.50;;;15.60;48.50;;;;;;5042084;28;20395;-71
2022/11/13 03:12:09;;;;;;;65.50;19.95;;;15.60;48.60;;;;;;5039097;28;20078;-70
2022/11/13 03:14:36;;;;;;;53.20;20.27;;;15.50;49.30;;;;;;5043355;28;20085;-71
2022/11/13 03:17:03;;;;;;;52.10;20.00;;;15.50;48.60;;;;;;5046966;28;20074;-70
2022/11/13 03:19:29;;;;;;;63.63;21.48;;;15.40;48.60;;;;;;5040646;28;20078;-71
2022/11/13 03:21:56;;;;;;;64.10;23.60;;;15.40;48.90;;;;;;5041293;28;20077;-71
2022/11/13 03:24:22;;;;;;;;;;;15.30;48.40;;;;;;5042941;28;20076;-69
2022/11/13 03:26:48;;;;;;;78.53;26.20;;;15.30;48.20;;;;;;5045633;28;19961;-70
2022/11/13 03:29:14;;;;;;;;;;;15.30;48.20;;;;;;5044004;28;20173;-72
2022/11/13 03:31:41;;;;;;;63.67;26.48;;;15.30;48.70;;;;;;5039561;28;20027;-70
2022/11/13 03:34:07;;;;;;;;;;;15.20;48.70;;;;;;5040674;28;20089;-70
2022/11/13 03:36:36;;;;;;;87.63;32.40;;;15.20;48.80;;;;;;5043984;28;20422;-71
2022/11/13 03:39:02;;;;;;;76.18;29.52;;;15.20;48.90;;;;;;5041602;28;20180;-68
2022/11/13 03:41:29;;;;;;;80.28;27.88;;;15.20;48.80;;;;;;5038835;28;20430;-70
2022/11/13 03:43:55;;;;;;;;;;;15.00;48.60;;;;;;5040403;28;20113;-70
2022/11/13 03:46:21;;;;;;;86.93;38.35;;;15.00;49.40;;;;;;5044962;28;20407;-69
2022/11/13 03:48:48;;;;;;;81.68;28.73;;;14.90;49.50;;;;;;5046201;28;20161;-70
2022/11/13 03:51:14;;;;;;;82.53;28.08;;;14.90;49.80;;;;;;5042039;28;20560;-70
2022/11/13 03:53:40;;;;;;;;;;;14.90;49.50;;;;;;5044164;28;20089;-68
2022/11/13 03:56:07;;;;;;;80.82;27.63;;;14.90;50.70;;;;;;5044098;28;20006;-68
2022/11/13 03:58:36;;;;;;;89.20;27.42;;;14.80;49.70;;;;;;5042541;28;20083;-67
2022/11/13 04:01:02;;;;;;;92.80;29.77;;;14.80;49.70;;;;;;5043467;28;20069;-69
2022/11/13 04:03:28;;;;;;;;;;;14.60;49.60;;;;;;5041318;28;20531;-69
2022/11/13 04:05:55;;;;;;;77.60;29.30;;;14.60;50.50;;;;;;5045007;28;19988;-71
2022/11/13 04:08:21;;;;;;;;;;;14.60;50.30;;;;;;5049437;28;20066;-70
2022/11/13 04:10:47;;;;;;;108.80;30.38;;;14.70;49.90;;;;;;5042333;28;19981;-68
2022/11/13 04:13:13;;;;;;;;;;;14.60;50.60;;;;;;5041468;28;20074;-69
2022/11/13 04:15:40;;;;;;;101.65;32.03;;;14.60;50.30;;;;;;5040485;28;19973;-71
2022/11/13 04:18:06;;;;;;;;;;;14.60;50.40;;;;;;5038923;28;20523;-67
2022/11/13 04:20:32;;;;;;;111.75;33.95;;;14.60;51.50;;;;;;5037995;28;20307;-68
2022/11/13 04:22:58;;;;;;;;;;;14.60;52.00;;;;;;5037117;28;20085;-68
2022/11/13 04:25:26;;;;;;;98.57;32.58;;;14.60;51.60;;;;;;5040800;28;20330;-69
2022/11/13 04:27:52;;;;;;;138.02;36.40;;;14.60;52.30;;;;;;5033382;28;20081;-69
2022/11/13 04:30:19;;;;;;;112.43;31.77;;;14.50;51.30;;;;;;5042442;28;20101;-69
2022/11/13 04:32:46;;;;;;;123.93;34.15;;;14.50;51.40;;;;;;5056932;28;20163;-69
2022/11/13 04:35:12;;;;;;;;;;;14.50;50.90;;;;;;5038198;28;20089;-69
2022/11/13 04:37:38;;;;;;;124.07;39.95;;;14.30;51.00;;;;;;5041244;28;20346;-69
2022/11/13 04:40:04;;;;;;;;;;;14.30;50.90;;;;;;5040778;28;20082;-69
2022/11/13 04:42:49;;;;;;;155.35;44.10;;;14.30;51.00;;;;;;5040823;28;20400;-70
2022/11/13 04:45:21;;;;;;;148.00;42.58;;;14.30;52.00;;;;;;5040637;28;20090;-70
2022/11/13 04:47:48;;;;;;;141.65;40.20;;;14.30;51.80;;;;;;5044896;28;20545;-69
2022/11/13 04:50:15;;;;;;;160.02;40.63;;;14.30;51.30;;;;;;5039598;28;20122;-69
2022/11/13 04:52:42;;;;;;;159.30;42.08;;;14.30;52.70;;;;;;5041975;28;20173;-70
2022/11/13 04:55:10;;;;;;;140.50;41.88;;;14.20;53.30;;;;;;5041946;28;20069;-70
2022/11/13 04:57:37;;;;;;;180.75;44.75;;;14.20;52.40;;;;;;5038315;28;20078;-70
2022/11/13 05:00:06;;;;;;;168.35;46.35;;;14.10;51.40;;;;;;5041766;28;20097;-69
2022/11/13 05:02:32;;;;;;;155.30;46.05;;;14.20;51.30;;;;;;5037321;28;20478;-68
2022/11/13 05:04:58;;;;;;;;;;;14.10;51.00;;;;;;5038954;28;20181;-70
2022/11/13 05:07:25;;;;;;;147.18;43.45;;;14.20;51.20;;;;;;5040899;28;20489;-71
2022/11/13 05:09:52;;;;;;;141.05;44.33;;;14.10;51.80;;;;;;5038202;28;20090;-69
2022/11/13 05:12:19;;;;;;;166.07;45.30;;;14.10;52.20;;;;;;5040345;28;20106;-69
2022/11/13 05:14:45;;;;;;;175.50;46.17;;;14.10;52.30;;;;;;5041991;28;20135;-70
2022/11/13 05:17:12;;;;;;;;;;;14.20;51.90;;;;;;5041955;28;20095;-69
2022/11/13 05:19:39;;;;;;;201.73;46.17;;;14.20;50.20;;;;;;5038489;28;20011;-69
2022/11/13 05:22:05;;;;;;;152.45;42.67;;;14.20;50.00;;;;;;5056304;28;20093;-69
2022/11/13 05:24:32;;;;;;;153.90;44.22;;;14.20;51.80;;;;;;5042887;28;20084;-67
2022/11/13 05:26:58;;;;;;;;;;;14.20;51.50;;;;;;5039857;28;20097;-70
2022/11/13 05:29:24;;;;;;;153.43;44.08;;;14.20;51.30;;;;;;5038458;28;20469;-68
2022/11/13 05:31:51;;;;;;;166.38;43.65;;;14.10;50.50;;;;;;5041718;28;20080;-70
2022/11/13 05:34:19;;;;;;;169.95;45.28;;;14.00;50.50;;;;;;5041332;28;20093;-68
2022/11/13 05:36:45;;;;;;;;;;;14.00;50.80;;;;;;5043522;28;20093;-71
2022/11/13 05:39:11;;;;;;;178.02;43.35;;;14.00;51.00;;;;;;5035214;28;19997;-70
2022/11/13 05:41:38;;;;;;;171.10;45.72;;;14.00;50.90;;;;;;5040241;28;20153;-68
2022/11/13 05:44:04;;;;;;;;;;;13.90;52.10;;;;;;5055134;28;20081;-69
2022/11/13 05:46:30;;;;;;;164.35;45.05;;;13.90;52.20;;;;;;5036728;28;19961;-69
2022/11/13 05:48:59;;;;;;;154.65;45.28;;;13.80;52.00;;;;;;5041190;28;20519;-69
2022/11/13 05:51:29;;;;;;;176.93;45.60;;;13.80;52.10;;;;;;5037960;28;20116;-69
2022/11/13 05:53:56;;;;;;;154.13;46.65;;;13.80;52.10;;;;;;5043604;28;20527;-68
2022/11/13 05:56:23;;;;;;;144.02;45.25;;;13.80;51.70;;;;;;5040606;28;20546;-69
2022/11/13 05:58:51;;;;;;;142.77;47.03;;;13.80;51.80;;;;;;5038349;28;20177;-67
2022/11/13 06:01:26;;;;;;;165.82;48.60;;;13.80;52.30;;;;;;5043481;28;20148;-69
2022/11/13 06:03:55;;;;;;;174.35;48.50;;;13.90;52.00;;;;;;5038898;28;20160;-69
2022/11/13 06:06:23;;;;;;;159.23;48.65;;;13.90;52.30;;;;;;5037352;28;20171;-69
2022/11/13 06:08:51;;;;;;;162.32;51.95;;;13.80;52.50;;;;;;5045225;28;20481;-68
2022/11/13 06:11:20;;;;;;;182.85;55.95;;;13.90;52.60;;;;;;5037160;28;20149;-68
2022/11/13 06:13:47;;;;;;;188.75;64.18;;;13.80;52.60;;;;;;5039574;28;20505;-70
2022/11/13 06:16:17;;;;;;;187.75;54.42;;;13.80;52.50;;;;;;5036389;28;20485;-67
2022/11/13 06:18:44;;;;;;;172.38;54.45;;;13.70;52.00;;;;;;5041563;28;20097;-70
2022/11/13 06:21:15;;;;;;;188.27;55.22;;;13.70;52.40;;;;;;5040535;28;20078;-69
2022/11/13 06:23:42;;;;;;;197.40;52.83;;;13.70;52.80;;;;;;5037548;28;20160;-69
2022/11/13 06:26:11;;;;;;;144.75;49.00;;;13.70;53.70;;;;;;5038632;28;20073;-70
2022/11/13 06:28:38;;;;;;;159.80;50.28;;;13.60;52.90;;;;;;5039034;28;21819;-67
2022/11/13 06:31:07;;;;;;;150.73;48.47;;;13.60;53.80;;;;;;5041408;28;20566;-67
2022/11/13 06:33:34;;;;;;;157.95;51.65;;;13.50;55.10;;;;;;5037093;28;20128;-67
2022/11/13 06:36:06;;;;;;;162.45;50.58;;;13.50;54.40;;;;;;5037020;28;20074;-66
2022/11/13 06:38:36;;;;;;;162.85;52.35;;;13.50;54.10;;;;;;5033134;28;20485;-67
2022/11/13 06:41:03;;;;;;;174.88;55.40;;;13.40;54.50;;;;;;5037524;28;20101;-68
2022/11/13 06:43:30;;;;;;;179.65;57.97;;;13.30;54.30;;;;;;5037000;28;20105;-70
2022/11/13 06:45:57;;;;;;;196.45;61.53;;;13.30;54.40;;;;;;5035773;28;20527;-67
2022/11/13 06:48:24;;;;;;;160.23;57.53;;;13.30;53.90;;;;;;5035843;28;20084;-69
2022/11/13 06:50:50;;;;;;;183.95;56.97;;;13.30;54.10;;;;;;5036681;28;20612;-68
2022/11/13 06:53:17;;;;;;;188.35;57.63;;;13.40;54.10;;;;;;5042603;28;20481;-69
2022/11/13 06:55:48;;;;;;;179.80;55.72;;;13.30;54.10;;;;;;5038365;28;20088;-68
2022/11/13 06:58:15;;;;;;;187.05;55.28;;;13.30;54.30;;;;;;5032623;28;20446;-69
2022/11/13 07:00:42;;;;;;;218.00;77.70;;;13.20;55.90;;;;;;5036560;28;20066;-67
2022/11/13 07:03:35;;;;;;;182.55;59.90;;;13.20;55.90;;;;;;5043957;28;20082;-67
2022/11/13 07:06:04;;;;;;;184.07;56.78;;;13.20;55.60;;;;;;5026941;28;20151;-69
2022/11/13 07:08:30;;;;;;;188.88;60.95;;;13.20;55.40;;;;;;5039451;28;20092;-68
2022/11/13 07:10:57;;;;;;;;;;;13.10;55.80;;;;;;5034889;28;20139;-68
2022/11/13 07:13:24;;;;;;;179.18;60.50;;;13.10;55.10;;;;;;5035018;28;19957;-68
2022/11/13 07:15:51;;;;;;;165.60;58.45;;;13.10;55.20;;;;;;5036365;28;20089;-69
2022/11/13 07:18:18;;;;;;;150.77;56.72;;;13.10;55.30;;;;;;5034913;28;20073;-67
2022/11/13 07:20:44;;;;;;;165.25;58.13;;;13.00;56.10;;;;;;5034433;28;20102;-68
2022/11/13 07:23:10;;;;;;;;;;;12.90;57.40;;;;;;5035815;28;21418;-68
2022/11/13 07:25:37;;;;;;;181.75;60.10;;;12.80;56.60;;;;;;5034533;28;19997;-68
2022/11/13 07:28:04;;;;;;;;;;;12.80;56.00;;;;;;5051039;28;20070;-68
2022/11/13 07:30:30;;;;;;;160.50;59.08;;;12.90;55.80;;;;;;5036435;28;19981;-67
2022/11/13 07:33:00;;;;;;;;;;;12.80;56.00;;;;;;5036488;28;20082;-66
2022/11/13 07:35:26;;;;;;;184.50;58.58;;;12.80;56.40;;;;;;5035694;28;20599;-67
2022/11/13 07:37:56;;;;;;;;;;;12.80;58.00;;;;;;5035937;28;20516;-69
2022/11/13 07:40:22;;;;;;;182.93;59.75;;;12.80;57.60;;;;;;5035338;28;19957;-66
2022/11/13 07:42:57;;;;;;;182.98;60.17;;;12.70;57.40;;;;;;5032799;28;20096;-68
2022/11/13 07:45:25;;;;;;;183.95;60.45;;;12.80;57.50;;;;;;5037537;28;20084;-70
2022/11/13 07:47:51;;;;;;;176.70;60.88;;;12.70;57.80;;;;;;5035171;28;20174;-69
2022/11/13 07:50:17;;;;;;;172.88;56.15;;;12.70;57.80;;;;;;5040845;28;20165;-70
2022/11/13 07:52:43;;;;;;;;;;;12.80;58.10;;;;;;5045660;28;20117;-70
2022/11/13 07:55:10;;;;;;;166.05;58.60;;;12.80;58.40;;;;;;5042501;28;19958;-69
2022/11/13 07:57:36;;;;;;;;;;;12.70;57.90;;;;;;5038338;28;20582;-69
2022/11/13 08:00:03;;;;;;;166.15;61.40;;;12.70;58.30;;;;;;5046618;28;20429;-67
2022/11/13 08:02:29;;;;;;;163.27;57.95;;;12.60;58.80;;;;;;5043233;28;20540;-67
2022/11/13 08:04:55;;;;;;;;;;;12.60;58.10;;;;;;5041436;28;20458;-69
2022/11/13 08:07:21;;;;;;;174.88;57.92;;;12.60;58.50;;;;;;5042176;28;19989;-65
2022/11/13 08:09:47;;;;;;;;;;;12.70;58.40;;;;;;5038985;28;20551;-68
2022/11/13 08:12:14;;;;;;;168.88;58.63;;;12.50;57.70;;;;;;5039574;28;20326;-69
2022/11/13 08:14:40;;;;;;;;;;;12.60;57.10;;;;;;5044267;28;20139;-69
2022/11/13 08:17:06;;;;;;;171.32;54.08;;;12.40;57.60;;;;;;5041168;28;20369;-68
2022/11/13 08:19:32;;;;;;;;;;;12.50;57.10;;;;;;5035826;28;20085;-68
2022/11/13 08:21:58;;;;;;;168.20;56.95;;;12.50;56.50;;;;;;5042589;28;20334;-68
2022/11/13 08:24:25;;;;;;;;;;;12.30;56.60;;;;;;5039430;28;20443;-69
2022/11/13 08:26:51;;;;;;;163.68;54.72;;;12.30;57.40;;;;;;5034507;28;20440;-69
2022/11/13 08:29:17;;;;;;;;;;;12.20;57.80;;;;;;5040432;28;20108;-69
2022/11/13 08:31:43;;;;;;;161.77;56.00;;;12.10;56.80;;;;;;5041288;28;19957;-70
2022/11/13 08:34:10;;;;;;;167.57;57.28;;;12.10;56.90;;;;;;5041480;28;20077;-69
2022/11/13 08:36:36;;;;;;;;;;;12.10;57.10;;;;;;5043246;28;20089;-67
2022/11/13 08:39:02;;;;;;;157.80;52.15;;;12.20;57.40;;;;;;5038828;28;20001;-69
2022/11/13 08:41:29;;;;;;;163.25;59.00;;;12.10;58.00;;;;;;5039097;28;20105;-69
2022/11/13 08:43:55;;;;;;;;;;;12.10;58.10;;;;;;5041437;28;20081;-69
2022/11/13 08:46:21;;;;;;;155.07;57.33;;;12.00;57.80;;;;;;5043103;28;19965;-66
2022/11/13 08:48:47;;;;;;;183.43;55.63;;;12.10;58.30;;;;;;5056113;28;20081;-69
2022/11/13 08:51:13;;;;;;;;;;;12.00;58.10;;;;;;5040514;28;20104;-67
2022/11/13 08:53:40;;;;;;;171.00;56.63;;;12.00;58.40;;;;;;5041630;28;20284;-69
2022/11/13 08:56:06;;;;;;;185.85;61.83;;;12.10;57.80;;;;;;5043637;28;20442;-69
2022/11/13 08:58:33;;;;;;;181.48;58.33;;;12.00;58.10;;;;;;5041885;28;20070;-69
2022/11/13 09:01:02;;;;;;;;;;;12.00;58.80;;;;;;5041188;28;20097;-69
2022/11/13 09:03:29;;;;;;;168.95;60.80;;;11.80;58.60;;;;;;5044558;28;19958;-70
2022/11/13 09:05:55;;;;;;;182.70;62.75;;;11.80;59.30;;;;;;5042060;28;20110;-68
2022/11/13 09:08:21;;;;;;;;;;;11.80;59.10;;;;;;5056955;28;20070;-65
2022/11/13 09:10:47;;;;;;;170.43;61.35;;;11.70;59.20;;;;;;5046660;28;20068;-67
2022/11/13 09:13:13;;;;;;;;;;;11.70;59.10;;;;;;5042912;28;20073;-68
2022/11/13 09:15:41;;;;;;;171.65;60.50;;;11.60;60.50;;;;;;5037031;28;20335;-67
2022/11/13 09:18:09;;;;;;;177.88;63.85;;;11.70;59.90;;;;;;5041723;28;20489;-67
2022/11/13 09:20:36;;;;;;;159.85;59.85;;;11.70;59.60;;;;;;5042789;28;20094;-68
2022/11/13 09:23:05;;;;;;;152.55;56.35;;;11.80;59.80;;;;;;5040456;28;20093;-69
2022/11/13 09:25:34;;;;;;;172.68;59.35;;;11.90;59.90;;;;;;5045330;28;20199;-69
2022/11/13 09:28:02;;;;;;;171.98;59.03;;;11.80;59.60;;;;;;5041044;28;20073;-69
2022/11/13 09:30:29;;;;;;;149.43;60.53;;;11.70;59.70;;;;;;5038570;28;20092;-69
2022/11/13 09:32:57;;;;;;;164.15;62.53;;;11.70;60.00;;;;;;5039476;28;20070;-68
2022/11/13 09:35:35;;;;;;;175.77;63.50;;;11.70;59.90;;;;;;5036788;28;20303;-70
2022/11/13 09:38:13;;;;;;;194.57;69.85;;;11.70;60.10;;;;;;5039014;28;20538;-69
2022/11/13 09:40:48;;;;;;;192.70;70.05;;;11.50;60.00;;;;;;5039954;28;20077;-68
2022/11/13 09:43:38;;;;;;;162.02;64.18;;;11.50;60.40;;;;;;5037530;28;20118;-70
2022/11/13 09:46:25;;;;;;;186.50;67.28;;;11.50;60.60;;;;;;5044432;28;20536;-67
2022/11/13 09:49:04;;;;;;;202.80;71.53;;;11.40;61.80;;;;;;5040846;28;20108;-70
2022/11/13 09:51:37;;;;;;;205.95;72.32;;;11.40;61.90;;;;;;5041567;28;20084;-69
2022/11/13 09:54:12;;;;;;;201.73;71.80;;;11.30;61.80;;;;;;5040351;28;20322;-68
2022/11/13 09:57:09;;;;;;;195.13;75.00;;;11.40;62.00;;;;;;5042341;28;20081;-71
2022/11/13 09:59:44;;;;;;;206.07;76.05;;;11.40;61.70;;;;;;5038949;28;20546;-70
2022/11/13 10:02:17;;;;;;;201.85;73.10;;;11.50;60.90;;;;;;5040236;28;20080;-70
2022/11/13 10:04:56;;;;;;;174.23;70.20;;;11.40;61.00;;;;;;5039800;28;20090;-69
2022/11/13 10:07:25;;;;;;;196.40;75.30;;;11.50;61.20;;;;;;5041805;28;20113;-70
2022/11/13 10:10:16;;;;;;;210.93;75.63;;;11.40;61.40;;;;;;5045316;28;20092;-68
2022/11/13 10:12:45;;;;;;;192.50;74.97;;;11.40;61.50;;;;;;5038051;28;20094;-70
2022/11/13 10:15:13;;;;;;;191.65;76.38;;;11.40;61.30;;;;;;5036667;28;20176;-69
2022/11/13 10:17:57;;;;;;;191.52;75.53;;;11.30;61.90;;;;;;5043952;28;20127;-69
2022/11/13 10:20:49;;;;;;;177.95;74.30;;;11.30;61.30;;;;;;5040480;28;20093;-67
2022/11/13 10:23:18;;;;;;;181.30;68.15;;;11.20;61.30;;;;;;5037380;28;20105;-68
2022/11/13 10:25:46;;;;;;;182.23;66.93;;;11.20;60.70;;;;;;5036871;28;20182;-67
2022/11/13 10:28:24;;;;;;;170.95;67.13;;;11.30;60.40;;;;;;5038732;28;20168;-70
2022/11/13 10:30:50;;;;;;;170.63;64.60;;;11.30;60.10;;;;;;5034870;28;20089;-70
2022/11/13 10:33:18;;;;;;;;;;;11.30;59.60;;;;;;5038870;28;20074;-69
2022/11/13 10:35:48;;;;;;;178.00;68.10;;;11.30;59.10;;;;;;5037214;28;19976;-70
2022/11/13 10:38:43;;;;;;;186.60;68.82;;;11.30;59.10;;;;;;5039739;28;20077;-68
2022/11/13 10:41:15;;;;;;;185.27;67.53;;;11.30;58.80;;;;;;5039292;28;20127;-69
2022/11/13 10:44:20;;;;;;;184.35;63.63;;;11.10;59.30;;;;;;5036626;28;20074;-70
2022/11/13 10:46:47;;;;;;;179.18;67.03;;;11.20;59.70;;;;;;5035729;28;20082;-68
2022/11/13 10:49:25;;;;;;;169.30;66.47;;;11.20;59.50;;;;;;5035964;28;20077;-69
2022/11/13 10:52:02;;;;;;;186.15;66.07;;;11.20;58.90;;;;;;5035553;28;20069;-67
2022/11/13 10:54:31;;;;;;;172.98;63.95;;;11.20;58.70;;;;;;5040628;28;20069;-69
2022/11/13 10:57:03;;;;;;;200.77;72.05;;;11.20;59.00;;;;;;5038922;28;20073;-67
2022/11/13 10:59:42;;;;;;;206.93;76.43;;;11.20;59.80;;;;;;5044070;28;20447;-70
2022/11/13 11:02:20;;;;;;;206.32;73.55;;;11.20;60.10;;;;;;5042932;28;20078;-69
2022/11/13 11:04:46;;;;;;;206.95;76.15;;;11.20;60.20;;;;;;5038446;28;20070;-69
2022/11/13 11:07:22;;;;;;;234.43;80.10;;;11.20;59.60;;;;;;5034107;28;20122;-69
2022/11/13 11:09:50;;;;;;;217.57;79.15;;;11.10;59.50;;;;;;5038299;28;20166;-69
2022/11/13 11:12:22;;;;;;;251.18;82.15;;;11.10;59.60;;;;;;5041362;28;20169;-69
2022/11/13 11:14:58;;;;;;;230.40;81.65;;;11.10;59.70;;;;;;5039330;28;20081;-68
2022/11/13 11:17:48;;;;;;;241.40;79.45;;;11.10;60.20;;;;;;5040427;28;20093;-68
2022/11/13 11:20:18;;;;;;;251.15;87.68;;;11.00;60.50;;;;;;5042933;28;20100;-70
2022/11/13 11:22:48;;;;;;;243.05;88.78;;;10.90;60.80;;;;;;5040784;28;20080;-68
2022/11/13 11:25:31;;;;;;;268.45;89.97;;;10.80;61.00;;;;;;5040994;28;20107;-68
2022/11/13 11:28:22;;;;;;;260.98;93.13;;;10.70;61.30;;;;;;5042899;28;20085;-70
2022/11/13 11:31:04;;;;;;;270.90;92.55;;;10.60;61.90;;;;;;5036911;28;20513;-70
2022/11/13 11:33:53;;;;;;;259.25;91.72;;;10.70;61.70;;;;;;5043036;28;20074;-70
2022/11/13 11:36:31;;;;;;;243.82;91.85;;;10.70;61.00;;;;;;5040128;28;20074;-68
2022/11/13 11:39:16;;;;;;;243.82;93.22;;;10.80;61.10;;;;;;5058212;28;20074;-67
2022/11/13 11:42:22;;;;;;;280.20;97.15;;;10.80;61.20;;;;;;5041679;28;20098;-69
2022/11/13 11:45:06;;;;;;;271.70;98.20;;;10.70;60.10;;;;;;5039571;28;20066;-69
2022/11/13 11:47:33;;;;;;;308.42;103.18;;;10.60;61.00;;;;;;5042900;28;20539;-69
2022/11/13 11:50:01;;;;;;;276.67;105.38;;;10.60;61.70;;;;;;5041830;28;20104;-70
2022/11/13 11:52:52;;;;;;;300.27;108.57;;;10.60;60.90;;;;;;5041122;28;20160;-68
2022/11/13 11:55:47;;;;;;;285.38;106.55;;;10.60;60.30;;;;;;5040546;28;20085;-67
2022/11/13 11:58:19;;;;;;;289.35;116.57;;;10.50;61.30;;;;;;5033697;28;20165;-66
2022/11/13 12:01:14;;;;;;;313.67;125.82;;;10.40;60.70;;;;;;5037540;28;20109;-68
2022/11/13 12:04:16;;;;;;;304.90;115.82;;;10.40;60.80;;;;;;5037886;28;20101;-69
2022/11/13 12:07:01;;;;;;;282.98;116.03;;;10.50;60.60;;;;;;5032574;28;20543;-68
2022/11/13 12:09:46;;;;;;;284.23;113.90;;;10.50;60.40;;;;;;5042069;28;20078;-69
2022/11/13 12:12:35;;;;;;;291.83;115.25;;;10.60;59.10;;;;;;5044236;28;20066;-69
2022/11/13 12:15:08;;;;;;;281.02;111.70;;;10.50;58.80;;;;;;5036933;28;20090;-69
2022/11/13 12:17:41;;;;;;;279.17;114.25;;;10.40;58.80;;;;;;5039929;28;20558;-69
2022/11/13 12:20:35;;;;;;;264.08;110.30;;;10.30;59.70;;;;;;5043822;28;20530;-69
2022/11/13 12:23:20;;;;;;;256.67;107.50;;;10.10;59.90;;;;;;5040440;28;20437;-68
2022/11/13 12:25:54;;;;;;;267.80;109.00;;;10.10;60.10;;;;;;5041256;28;20093;-69
2022/11/13 12:28:40;;;;;;;262.02;106.97;;;10.10;60.20;;;;;;5039904;28;20077;-69
2022/11/13 12:31:09;;;;;;;280.55;106.60;;;10.10;60.40;;;;;;5038839;28;20120;-68
2022/11/13 12:33:51;;;;;;;266.40;108.60;;;10.10;60.20;;;;;;5042002;28;20557;-70
2022/11/13 12:36:21;;;;;;;271.27;107.05;;;10.10;60.00;;;;;;5042970;28;20085;-71
2022/11/13 12:38:57;;;;;;;244.70;102.68;;;10.10;61.30;;;;;;5041238;28;20074;-69
2022/11/13 12:41:43;;;;;;;269.40;103.85;;;10.20;61.10;;;;;;5041299;28;20086;-67
2022/11/13 12:44:28;;;;;;;264.13;103.78;;;10.30;61.90;;;;;;5040977;28;20131;-68
2022/11/13 12:46:56;;;;;;;259.30;100.75;;;10.30;61.30;;;;;;5041894;28;20082;-66
2022/11/13 12:49:23;;;;;;;282.35;101.85;;;10.30;61.00;;;;;;5041038;28;20540;-67
2022/11/13 12:52:17;;;;;;;243.45;98.93;;;10.30;60.90;;;;;;5040801;28;20637;-66